Time;durP1;ratioP1;P1;durP2;ratioP2;P2;SDS_P1;SDS_P2;PMS_P1;PMS_P2;Temp;Humidity;BMP_temperature;BMP_pressure;BME280_temperature;BME280_humidity;BME280_pressure;Samples;Min_cycle;Max_cycle;Signal;HPM_P1;HPM_P2
2023/09/16 00:02:28;;;;;;;4.43;2.50;;;24.80;99.90;;;;;;5070726;28;20196;-78
2023/09/16 00:04:59;;;;;;;4.32;2.78;;;25.00;99.90;;;;;;5069104;28;20197;-77
2023/09/16 00:07:30;;;;;;;2.90;2.40;;;25.10;99.90;;;;;;5069838;28;20688;-78
2023/09/16 00:10:00;;;;;;;4.13;2.53;;;25.30;99.90;;;;;;5074241;28;20196;-78
2023/09/16 00:12:31;;;;;;;4.13;2.42;;;25.50;99.90;;;;;;5072349;28;20684;-77
2023/09/16 00:15:06;;;;;;;3.55;2.50;;;25.70;99.90;;;;;;5069899;28;20201;-77
2023/09/16 00:17:38;;;;;;;4.25;2.58;;;25.70;99.90;;;;;;5073858;28;20224;-76
2023/09/16 00:20:14;;;;;;;5.55;2.97;;;25.80;99.90;;;;;;5072078;28;20600;-77
2023/09/16 00:22:45;;;;;;;3.78;2.55;;;26.00;99.90;;;;;;5067100;28;20283;-78
2023/09/16 00:25:16;;;;;;;3.28;2.40;;;26.10;99.90;;;;;;5071922;28;20234;-78
2023/09/16 00:27:47;;;;;;;3.25;2.60;;;26.30;99.90;;;;;;5070614;28;20203;-78
2023/09/16 00:30:20;;;;;;;5.70;2.40;;;26.30;99.90;;;;;;5065003;28;20284;-78
2023/09/16 00:32:51;;;;;;;3.63;2.15;;;26.50;99.90;;;;;;5073630;28;20197;-78
2023/09/16 00:35:21;;;;;;;3.00;2.10;;;26.70;99.90;;;;;;5074154;28;20189;-78
2023/09/16 00:37:52;;;;;;;4.05;2.38;;;26.80;99.90;;;;;;5072947;28;20203;-77
2023/09/16 00:40:23;;;;;;;5.05;2.75;;;26.90;99.90;;;;;;5074125;28;20250;-79
2023/09/16 00:42:54;;;;;;;3.90;2.25;;;27.00;99.90;;;;;;5068974;28;20197;-77
2023/09/16 00:45:27;;;;;;;2.55;2.15;;;27.20;99.90;;;;;;5073452;28;20292;-78
2023/09/16 00:47:58;;;;;;;3.03;2.20;;;27.40;99.90;;;;;;5073622;28;20201;-78
2023/09/16 00:50:29;;;;;;;3.53;2.08;;;27.50;99.90;;;;;;5073813;28;20536;-78
2023/09/16 00:53:02;;;;;;;3.10;2.17;;;27.70;99.90;;;;;;5073504;28;20197;-78
2023/09/16 00:55:33;;;;;;;4.72;2.35;;;27.90;99.90;;;;;;5068279;28;20198;-78
2023/09/16 00:58:05;;;;;;;4.00;2.00;;;28.10;99.90;;;;;;5070888;28;20240;-78
2023/09/16 01:00:38;;;;;;;3.08;2.03;;;28.30;99.90;;;;;;5076253;28;20208;-78
2023/09/16 01:03:10;;;;;;;2.42;1.83;;;28.50;99.90;;;;;;5073450;28;20189;-77
2023/09/16 01:05:41;;;;;;;3.47;2.00;;;28.60;99.90;;;;;;5076628;28;20206;-79
2023/09/16 01:08:12;;;;;;;2.70;1.80;;;28.80;99.90;;;;;;5094120;28;20188;-78
2023/09/16 01:10:43;;;;;;;2.33;1.85;;;28.90;99.90;;;;;;5083167;28;20671;-78
2023/09/16 01:13:14;;;;;;;2.67;1.92;;;29.00;99.90;;;;;;5081188;28;20193;-78
2023/09/16 01:15:51;;;;;;;2.10;1.83;;;29.20;99.90;;;;;;5074204;28;20192;-77
2023/09/16 01:18:27;;;;;;;3.92;2.03;;;29.30;99.90;;;;;;5070334;28;20200;-78
2023/09/16 01:20:59;;;;;;;2.28;1.92;;;29.40;99.90;;;;;;5072811;28;20676;-77
2023/09/16 01:23:29;;;;;;;3.88;1.80;;;29.50;99.90;;;;;;5062908;28;20226;-77
2023/09/16 01:26:02;;;;;;;2.92;1.80;;;29.60;99.90;;;;;;5063547;28;20193;-76
2023/09/16 01:28:34;;;;;;;2.53;1.90;;;29.80;99.90;;;;;;5072037;28;20235;-77
2023/09/16 01:31:06;;;;;;;2.78;1.80;;;29.90;99.90;;;;;;5091549;28;20181;-77
2023/09/16 01:33:42;;;;;;;2.45;2.13;;;29.90;99.90;;;;;;5091166;28;20188;-77
2023/09/16 01:36:19;;;;;;;3.25;1.70;;;30.10;99.90;;;;;;5091742;28;20192;-77
2023/09/16 01:38:57;;;;;;;3.33;1.90;;;30.20;99.90;;;;;;5088871;28;20211;-77
2023/09/16 01:41:33;;;;;;;4.63;1.90;;;30.30;99.90;;;;;;5059159;28;20218;-77
2023/09/16 01:44:05;;;;;;;3.90;1.90;;;30.40;99.90;;;;;;5072997;28;20208;-77
2023/09/16 01:46:36;;;;;;;2.55;1.60;;;30.50;99.90;;;;;;5073660;28;20188;-79
2023/09/16 08:07:11;;;;;;;2.65;2.03;;;29.10;77.00;;;;;;5090282;28;21082;-78
2023/09/16 08:09:41;;;;;;;3.45;2.05;;;29.00;78.40;;;;;;5069190;28;20608;-77
2023/09/16 08:12:13;;;;;;;2.80;2.10;;;28.90;77.80;;;;;;5059054;28;20209;-77
2023/09/16 08:14:44;;;;;;;2.85;2.30;;;28.90;77.80;;;;;;5060322;28;20228;-77
2023/09/16 08:17:15;;;;;;;3.20;2.00;;;28.90;77.70;;;;;;5064457;28;20199;-77
2023/09/16 08:19:46;;;;;;;3.35;2.30;;;28.80;78.10;;;;;;5068207;28;20242;-77
2023/09/16 08:22:18;;;;;;;2.45;2.00;;;28.80;78.90;;;;;;5066007;28;20287;-77
2023/09/16 08:24:49;;;;;;;2.42;2.22;;;28.80;78.20;;;;;;5058617;28;20549;-77
2023/09/16 08:27:21;;;;;;;3.25;2.50;;;28.70;78.50;;;;;;5056295;28;20262;-77
2023/09/16 08:29:52;;;;;;;3.75;2.33;;;28.60;79.50;;;;;;5057956;28;20197;-77
2023/09/16 08:32:26;;;;;;;3.40;2.00;;;28.50;79.20;;;;;;5066281;28;20280;-77
2023/09/16 08:34:56;;;;;;;2.80;1.88;;;28.50;78.90;;;;;;5053078;28;20593;-77
2023/09/16 08:37:29;;;;;;;2.90;2.20;;;28.60;79.00;;;;;;5062861;28;20197;-77
2023/09/16 08:40:01;;;;;;;4.03;2.50;;;28.50;79.30;;;;;;5066782;28;20212;-77
2023/09/16 08:42:37;;;;;;;5.85;2.42;;;28.50;79.30;;;;;;5064499;28;20198;-77
2023/09/16 08:45:10;;;;;;;2.75;2.47;;;28.40;79.50;;;;;;5064213;28;20217;-76
2023/09/16 08:47:44;;;;;;;3.10;2.50;;;28.40;79.60;;;;;;5061492;28;20193;-77
2023/09/16 08:50:17;;;;;;;3.55;2.30;;;28.40;79.80;;;;;;5059841;28;20247;-76
2023/09/16 08:52:53;;;;;;;3.10;2.00;;;28.40;79.90;;;;;;5065500;28;20193;-76
2023/09/16 08:55:24;;;;;;;2.42;1.90;;;28.40;80.20;;;;;;5060421;28;20207;-76
2023/09/16 08:57:58;;;;;;;3.33;1.75;;;28.30;80.30;;;;;;5054181;28;20241;-76
2023/09/16 09:00:28;;;;;;;3.35;1.92;;;28.30;80.50;;;;;;5052981;28;20205;-77
2023/09/16 09:02:59;;;;;;;2.45;1.83;;;28.10;80.90;;;;;;5061019;28;20194;-77
2023/09/16 09:05:31;;;;;;;4.07;1.98;;;28.00;81.10;;;;;;5060358;28;20707;-76
2023/09/16 09:08:08;;;;;;;2.33;1.98;;;27.90;81.40;;;;;;5053302;28;20244;-76
2023/09/16 09:10:39;;;;;;;3.30;1.98;;;27.80;81.90;;;;;;5057493;28;20233;-77
2023/09/16 09:13:14;;;;;;;3.80;2.10;;;27.70;83.00;;;;;;5049381;28;20194;-77
2023/09/16 09:15:47;;;;;;;3.03;2.10;;;27.60;82.40;;;;;;5061277;28;20200;-77
2023/09/16 09:18:19;;;;;;;5.90;2.22;;;27.50;82.60;;;;;;5048944;28;20275;-76
2023/09/16 09:20:51;;;;;;;4.65;1.92;;;27.40;82.90;;;;;;5039797;28;20205;-77
2023/09/16 09:23:24;;;;;;;2.85;2.00;;;27.30;82.90;;;;;;5043842;28;20197;-77
2023/09/16 09:25:56;;;;;;;2.80;2.58;;;27.20;83.30;;;;;;5044730;28;20233;-77
2023/09/16 09:28:29;;;;;;;3.58;1.90;;;27.20;83.60;;;;;;5053540;28;20233;-77
2023/09/16 09:31:02;;;;;;;3.25;2.17;;;27.20;83.70;;;;;;5041926;28;20202;-77
2023/09/16 09:33:33;;;;;;;3.25;2.00;;;27.10;83.90;;;;;;5043705;28;20198;-77
2023/09/16 09:36:15;;;;;;;2.55;2.13;;;27.00;84.00;;;;;;5034297;28;20195;-76
2023/09/16 09:38:48;;;;;;;2.55;2.08;;;26.90;85.00;;;;;;5042279;28;21164;-77
2023/09/16 09:41:19;;;;;;;3.25;2.30;;;26.70;87.60;;;;;;5046843;28;20228;-77
2023/09/16 09:43:52;;;;;;;4.70;2.35;;;26.50;89.60;;;;;;5052257;28;20285;-77
2023/09/16 09:46:24;;;;;;;4.40;2.88;;;26.20;90.40;;;;;;5047019;28;20221;-77
2023/09/16 09:48:55;;;;;;;3.70;3.17;;;26.00;90.60;;;;;;5044557;28;20198;-76
2023/09/16 09:51:28;;;;;;;5.68;3.97;;;25.80;90.70;;;;;;5049925;28;20266;-77
2023/09/16 09:54:01;;;;;;;8.43;4.93;;;25.60;91.00;;;;;;5047017;28;20208;-76
2023/09/16 09:56:33;;;;;;;8.98;5.18;;;25.40;91.00;;;;;;5046578;28;20309;-76
2023/09/16 09:59:04;;;;;;;8.02;5.60;;;25.10;91.30;;;;;;5037569;28;20571;-76
2023/09/16 10:01:37;;;;;;;7.38;5.75;;;24.90;91.50;;;;;;5050644;28;20225;-77
2023/09/16 10:04:08;;;;;;;6.25;4.50;;;24.80;92.00;;;;;;5048406;28;20616;-77
2023/09/16 10:06:39;;;;;;;6.50;4.10;;;24.70;92.30;;;;;;5049354;28;20230;-77
2023/09/16 10:09:12;;;;;;;5.95;4.13;;;24.60;92.90;;;;;;5051109;28;20201;-77
2023/09/16 10:11:44;;;;;;;7.25;4.32;;;24.50;93.20;;;;;;5044234;28;20200;-77
2023/09/16 10:14:16;;;;;;;6.90;4.07;;;24.40;93.70;;;;;;5048480;28;20198;-76
2023/09/16 10:16:46;;;;;;;5.45;3.97;;;24.30;94.00;;;;;;5041996;28;20199;-77
2023/09/16 10:19:18;;;;;;;5.38;3.70;;;24.30;94.30;;;;;;5049332;28;20193;-76
2023/09/16 10:21:52;;;;;;;5.45;3.70;;;24.20;94.40;;;;;;5052467;28;20645;-77
2023/09/16 10:24:26;;;;;;;7.38;4.75;;;24.10;95.10;;;;;;5037099;28;20202;-77
2023/09/16 10:26:58;;;;;;;7.53;4.18;;;24.00;95.10;;;;;;5047749;28;20221;-77
2023/09/16 10:29:31;;;;;;;7.93;5.07;;;23.90;95.80;;;;;;5033527;28;20199;-76
2023/09/16 10:32:02;;;;;;;7.28;4.80;;;23.80;95.50;;;;;;5049151;28;20194;-77
2023/09/16 10:34:35;;;;;;;6.28;4.50;;;23.70;96.00;;;;;;5052379;28;20568;-77
2023/09/16 10:37:07;;;;;;;6.07;4.65;;;23.60;96.60;;;;;;5049588;28;20202;-77
2023/09/16 10:39:42;;;;;;;5.63;4.35;;;23.60;96.90;;;;;;5050279;28;20197;-76
2023/09/16 10:42:16;;;;;;;6.20;4.63;;;23.50;96.80;;;;;;5040061;28;20205;-77
2023/09/16 10:44:48;;;;;;;5.72;4.30;;;23.50;96.60;;;;;;5046648;28;20320;-77
2023/09/16 10:47:20;;;;;;;5.85;4.20;;;23.50;96.90;;;;;;5051802;28;20236;-77
2023/09/16 10:49:51;;;;;;;6.43;4.07;;;23.40;97.30;;;;;;5048817;28;20198;-76
2023/09/16 10:52:27;;;;;;;6.53;4.18;;;23.40;97.60;;;;;;5048836;28;20197;-77
2023/09/16 10:55:11;;;;;;;5.63;4.22;;;23.40;97.90;;;;;;5050197;28;20197;-77
2023/09/16 10:57:49;;;;;;;6.43;3.78;;;23.30;98.00;;;;;;5046916;28;20226;-77
2023/09/16 11:00:23;;;;;;;5.40;3.75;;;23.30;98.10;;;;;;5046871;28;20738;-76
2023/09/16 11:03:00;;;;;;;4.55;3.78;;;23.20;98.40;;;;;;5031876;28;20205;-77
2023/09/16 11:05:30;;;;;;;6.43;4.20;;;23.10;98.80;;;;;;5042060;28;20233;-76
2023/09/16 11:08:02;;;;;;;6.13;4.72;;;23.00;99.20;;;;;;5041498;28;20688;-76
2023/09/16 11:10:35;;;;;;;6.63;4.47;;;22.90;99.30;;;;;;5044352;28;20200;-76
2023/09/16 11:13:07;;;;;;;6.65;4.70;;;22.90;99.50;;;;;;5050643;28;20194;-76
2023/09/16 11:15:38;;;;;;;5.63;4.15;;;22.80;99.70;;;;;;5048027;28;20193;-76
2023/09/16 11:18:12;;;;;;;7.30;4.25;;;22.70;99.90;;;;;;5045800;28;20198;-77
2023/09/16 11:20:43;;;;;;;6.00;4.07;;;22.60;99.90;;;;;;5045625;28;20201;-77
2023/09/16 11:23:14;;;;;;;6.97;4.18;;;22.60;99.80;;;;;;5051088;28;20212;-77
2023/09/16 11:25:47;;;;;;;5.90;4.30;;;22.50;99.90;;;;;;5037456;28;20201;-76
2023/09/16 11:28:20;;;;;;;5.20;4.20;;;22.50;99.90;;;;;;5046548;28;20205;-76
2023/09/16 11:30:57;;;;;;;5.35;3.83;;;22.50;99.90;;;;;;5042196;28;20209;-76
2023/09/16 11:33:33;;;;;;;5.30;3.65;;;22.40;99.90;;;;;;5050527;28;20202;-76
2023/09/16 11:36:15;;;;;;;4.72;3.00;;;22.40;99.90;;;;;;5052929;28;20212;-76
2023/09/16 11:39:15;;;;;;;4.40;3.22;;;22.30;99.90;;;;;;5038045;28;20190;-77
2023/09/16 11:41:48;;;;;;;3.85;3.20;;;22.30;99.90;;;;;;5041038;28;20194;-77
2023/09/16 11:44:19;;;;;;;5.20;3.22;;;22.20;99.90;;;;;;5048303;28;20209;-76
2023/09/16 11:46:50;;;;;;;4.20;3.08;;;22.20;99.90;;;;;;5043028;28;20214;-77
2023/09/16 11:49:21;;;;;;;3.67;2.95;;;22.10;99.90;;;;;;5043261;28;20198;-77
2023/09/16 11:51:53;;;;;;;4.82;2.97;;;22.10;99.90;;;;;;5050738;28;20194;-77
2023/09/16 11:54:24;;;;;;;7.18;3.40;;;22.10;99.90;;;;;;5039154;28;20693;-77
2023/09/16 11:56:57;;;;;;;4.95;3.20;;;22.10;99.90;;;;;;5039021;28;20240;-77
2023/09/16 11:59:29;;;;;;;4.15;2.92;;;22.10;99.90;;;;;;5046699;28;20213;-77
2023/09/16 12:02:00;;;;;;;5.03;3.00;;;22.00;99.90;;;;;;5049074;28;20208;-77
2023/09/16 12:04:34;;;;;;;4.18;3.00;;;22.00;99.90;;;;;;5037964;28;20197;-77
2023/09/16 12:07:06;;;;;;;6.75;3.60;;;22.00;99.90;;;;;;5019524;28;20265;-77
2023/09/16 12:09:36;;;;;;;3.80;2.97;;;22.00;99.90;;;;;;5027461;28;20205;-77
2023/09/16 12:12:11;;;;;;;5.00;2.90;;;22.00;99.90;;;;;;5021311;28;20218;-76
2023/09/16 12:14:42;;;;;;;3.97;2.90;;;22.00;99.90;;;;;;5022268;28;20649;-77
2023/09/16 12:17:13;;;;;;;5.97;3.30;;;22.00;99.90;;;;;;5027952;28;20237;-76
2023/09/16 12:19:52;;;;;;;4.53;3.45;;;21.90;99.90;;;;;;5028893;28;20205;-76
2023/09/16 12:22:24;;;;;;;4.75;3.30;;;21.90;99.90;;;;;;5014089;28;20209;-77
2023/09/16 12:24:56;;;;;;;4.93;3.00;;;21.80;99.90;;;;;;5011869;28;20986;-77
2023/09/16 12:27:29;;;;;;;6.78;2.97;;;21.80;99.90;;;;;;5027011;28;20689;-77
2023/09/16 12:30:00;;;;;;;6.85;3.20;;;21.70;99.90;;;;;;5021626;28;20218;-77
2023/09/16 12:32:31;;;;;;;5.10;3.10;;;21.70;99.90;;;;;;5027738;28;20198;-77
2023/09/16 12:35:08;;;;;;;4.78;3.00;;;21.70;99.90;;;;;;5017355;28;20199;-77
2023/09/16 12:37:41;;;;;;;7.45;3.47;;;21.60;99.90;;;;;;5017896;28;20210;-77
2023/09/16 12:40:13;;;;;;;5.55;3.33;;;21.70;99.90;;;;;;5015112;28;20198;-76
2023/09/16 12:42:46;;;;;;;4.38;2.85;;;21.60;99.90;;;;;;5019640;28;20194;-76
2023/09/16 12:45:17;;;;;;;8.00;2.95;;;21.60;99.90;;;;;;5023722;28;20317;-77
2023/09/16 12:47:48;;;;;;;5.65;2.80;;;21.60;99.90;;;;;;5016122;28;20215;-77
2023/09/16 12:50:19;;;;;;;4.43;2.60;;;21.60;99.90;;;;;;5028810;28;20191;-76
2023/09/16 12:52:49;;;;;;;4.57;2.70;;;21.60;99.90;;;;;;5023266;28;20202;-77
2023/09/16 12:55:20;;;;;;;5.47;2.80;;;21.50;99.90;;;;;;5016361;28;20213;-77
2023/09/16 12:57:55;;;;;;;6.57;3.03;;;21.50;99.90;;;;;;5033996;28;20194;-77
2023/09/16 13:00:27;;;;;;;3.67;2.83;;;21.40;99.90;;;;;;5033717;28;20668;-77
2023/09/16 13:03:01;;;;;;;4.70;2.65;;;21.40;99.90;;;;;;5034469;28;20277;-76
2023/09/16 13:05:32;;;;;;;3.53;2.70;;;21.30;99.90;;;;;;5041808;28;20237;-77
2023/09/16 13:08:05;;;;;;;4.63;2.42;;;21.30;99.90;;;;;;5036283;28;20218;-77
2023/09/16 13:10:36;;;;;;;3.35;2.47;;;21.30;99.90;;;;;;5036413;28;20237;-77
2023/09/16 13:13:10;;;;;;;4.15;2.60;;;21.30;99.90;;;;;;5035715;28;20206;-76
2023/09/16 13:15:45;;;;;;;4.05;2.67;;;21.20;99.90;;;;;;5036290;28;20215;-76
2023/09/16 13:18:16;;;;;;;4.60;2.90;;;21.20;99.90;;;;;;5036151;28;20197;-76
2023/09/16 13:20:47;;;;;;;4.63;2.70;;;21.20;99.90;;;;;;5049548;28;20665;-77
2023/09/16 13:23:24;;;;;;;4.03;2.80;;;21.10;99.90;;;;;;5038172;28;20190;-77
2023/09/16 13:25:56;;;;;;;3.97;2.67;;;21.10;99.90;;;;;;5051093;28;20193;-76
2023/09/16 13:28:28;;;;;;;3.47;2.45;;;21.10;99.90;;;;;;5045324;28;20217;-76
2023/09/16 13:31:01;;;;;;;4.50;2.65;;;21.00;99.90;;;;;;5047753;28;20194;-76
2023/09/16 13:33:53;;;;;;;6.38;2.65;;;21.00;99.90;;;;;;5046650;28;20198;-77
2023/09/16 13:36:26;;;;;;;3.90;2.60;;;20.90;99.90;;;;;;5035693;28;20630;-77
2023/09/16 13:38:57;;;;;;;3.47;2.58;;;21.00;99.90;;;;;;5035840;28;20201;-77
2023/09/16 13:41:28;;;;;;;3.75;2.40;;;21.20;99.90;;;;;;5035520;28;20562;-76
2023/09/16 13:44:00;;;;;;;2.72;2.30;;;21.30;99.90;;;;;;5045033;28;20548;-76
2023/09/16 13:46:32;;;;;;;4.55;2.28;;;21.40;99.90;;;;;;5036288;28;20546;-76
2023/09/16 13:49:03;;;;;;;3.58;2.33;;;21.60;99.90;;;;;;5035602;28;20202;-76
2023/09/16 13:51:33;;;;;;;2.78;2.17;;;21.70;99.90;;;;;;5038091;28;20676;-76
2023/09/16 13:54:04;;;;;;;3.50;2.40;;;21.80;99.90;;;;;;5037878;28;20205;-76
2023/09/16 13:56:35;;;;;;;5.90;2.22;;;21.90;99.90;;;;;;5037072;28;20557;-76
2023/09/16 13:59:08;;;;;;;3.78;1.98;;;21.90;99.90;;;;;;5048458;28;20380;-76
2023/09/16 14:01:39;;;;;;;4.10;1.88;;;22.00;99.90;;;;;;5053254;28;20696;-76
2023/09/16 14:04:10;;;;;;;2.30;1.90;;;22.00;99.90;;;;;;5052311;28;20202;-77
2023/09/16 14:06:40;;;;;;;3.80;2.00;;;22.10;99.90;;;;;;5036973;28;20237;-76
2023/09/16 14:09:11;;;;;;;2.65;1.90;;;22.20;99.90;;;;;;5050649;28;20208;-77
2023/09/16 14:11:42;;;;;;;4.35;2.05;;;22.20;99.90;;;;;;5037394;28;20200;-76
2023/09/16 14:14:14;;;;;;;3.47;1.95;;;22.20;99.90;;;;;;5052558;28;20212;-76
2023/09/16 14:16:45;;;;;;;3.70;2.20;;;22.20;99.90;;;;;;5054989;28;20194;-76
2023/09/16 14:19:16;;;;;;;3.00;1.70;;;22.20;99.90;;;;;;5043108;28;20209;-76
2023/09/16 14:21:46;;;;;;;3.10;1.90;;;22.10;99.90;;;;;;5037160;28;20198;-76
2023/09/16 14:24:17;;;;;;;2.45;1.85;;;22.10;99.90;;;;;;5041509;28;20205;-76
2023/09/16 14:26:48;;;;;;;2.92;1.83;;;22.00;99.90;;;;;;5053578;28;20197;-76
2023/09/16 14:29:20;;;;;;;3.67;1.98;;;21.90;99.90;;;;;;5045495;28;20205;-76
2023/09/16 14:31:51;;;;;;;2.42;1.80;;;21.80;99.90;;;;;;5034639;28;20209;-76
2023/09/16 14:34:22;;;;;;;3.55;2.00;;;21.70;99.90;;;;;;5038239;28;20197;-76
2023/09/16 14:36:52;;;;;;;2.28;2.03;;;21.60;99.90;;;;;;5041568;28;20200;-76
2023/09/16 14:39:23;;;;;;;3.33;1.83;;;21.50;99.90;;;;;;5034434;28;20220;-76
2023/09/16 14:41:54;;;;;;;4.10;2.15;;;21.40;99.90;;;;;;5040532;28;20198;-76
2023/09/16 14:44:26;;;;;;;2.65;2.00;;;21.30;99.90;;;;;;5034537;28;20292;-76
2023/09/16 14:46:57;;;;;;;1.85;1.70;;;21.30;99.90;;;;;;5034386;28;20197;-76
2023/09/16 14:49:28;;;;;;;3.83;2.00;;;21.20;99.90;;;;;;5034456;28;20194;-76
2023/09/16 14:51:58;;;;;;;3.85;2.47;;;21.20;99.90;;;;;;5034406;28;20194;-76
2023/09/16 14:54:29;;;;;;;4.80;2.47;;;21.10;99.90;;;;;;5045212;28;20194;-76
2023/09/16 14:57:00;;;;;;;4.13;2.00;;;21.10;99.90;;;;;;5047612;28;20218;-76
2023/09/16 14:59:33;;;;;;;4.40;2.33;;;21.00;99.90;;;;;;5034843;28;20709;-76
2023/09/16 15:02:04;;;;;;;3.28;2.13;;;21.00;99.90;;;;;;5044983;28;20654;-76
2023/09/16 15:04:34;;;;;;;2.88;2.20;;;21.00;99.90;;;;;;5033646;28;20202;-76
2023/09/16 15:07:05;;;;;;;2.50;2.17;;;20.90;99.90;;;;;;5034087;28;20186;-76
2023/09/16 15:09:36;;;;;;;2.50;2.05;;;21.00;99.90;;;;;;5042122;28;20614;-76
2023/09/16 15:12:07;;;;;;;5.05;2.42;;;21.00;99.90;;;;;;5049298;28;20202;-76
2023/09/16 15:14:40;;;;;;;3.13;2.22;;;21.00;99.90;;;;;;5040071;28;20209;-76
2023/09/16 15:17:10;;;;;;;3.65;2.00;;;21.00;99.90;;;;;;5049918;28;20197;-76
2023/09/16 15:19:41;;;;;;;3.08;2.10;;;21.00;99.90;;;;;;5041778;28;20233;-77
2023/09/16 15:22:12;;;;;;;2.75;2.13;;;21.00;99.90;;;;;;5037419;28;20217;-76
2023/09/16 15:24:43;;;;;;;3.53;2.15;;;21.00;99.90;;;;;;5045796;28;20198;-76
2023/09/16 15:27:14;;;;;;;2.83;1.85;;;21.00;99.90;;;;;;5046558;28;20224;-76
2023/09/16 15:29:46;;;;;;;3.25;2.20;;;21.00;99.90;;;;;;5037002;28;20193;-76
2023/09/16 15:32:17;;;;;;;2.85;2.20;;;21.00;99.90;;;;;;5045353;28;20205;-76
2023/09/16 15:34:48;;;;;;;2.80;1.83;;;20.90;99.90;;;;;;5033714;28;20222;-76
2023/09/16 15:37:18;;;;;;;3.35;2.00;;;20.90;99.90;;;;;;5033891;28;20206;-76
2023/09/16 15:39:49;;;;;;;2.88;1.90;;;21.00;99.90;;;;;;5044741;28;20549;-76
2023/09/16 15:42:20;;;;;;;4.07;1.80;;;21.00;99.90;;;;;;5037381;28;20194;-76
2023/09/16 15:44:54;;;;;;;3.15;1.88;;;21.10;99.90;;;;;;5053339;28;20194;-76
2023/09/16 15:47:25;;;;;;;3.10;1.95;;;21.20;99.90;;;;;;5053318;28;20299;-75
2023/09/16 15:49:57;;;;;;;3.03;2.03;;;21.30;99.90;;;;;;5052579;28;20564;-75
2023/09/16 15:52:27;;;;;;;3.85;1.90;;;21.40;99.90;;;;;;5039340;28;20190;-76
2023/09/16 15:54:58;;;;;;;2.03;1.83;;;21.40;99.90;;;;;;5033294;28;20222;-76
2023/09/16 15:57:29;;;;;;;2.67;2.00;;;21.40;99.90;;;;;;5033308;28;20205;-76
2023/09/16 16:00:01;;;;;;;2.25;2.00;;;21.40;99.90;;;;;;5038213;28;20190;-75
2023/09/16 16:02:33;;;;;;;3.03;2.03;;;21.30;99.90;;;;;;5038336;28;20194;-76
2023/09/16 16:05:04;;;;;;;5.20;2.20;;;21.20;99.90;;;;;;5033098;28;20280;-76
2023/09/16 16:07:34;;;;;;;3.53;2.30;;;21.20;99.90;;;;;;5043128;28;20624;-76
2023/09/16 16:10:06;;;;;;;3.63;2.25;;;21.10;99.90;;;;;;5045195;28;20205;-76
2023/09/16 16:12:37;;;;;;;4.13;2.30;;;21.00;99.90;;;;;;5047823;28;20194;-76
2023/09/16 16:15:10;;;;;;;4.18;2.50;;;20.90;99.90;;;;;;5036436;28;20567;-76
2023/09/16 16:17:40;;;;;;;3.47;2.60;;;20.80;99.90;;;;;;5048423;28;20206;-76
2023/09/16 16:20:12;;;;;;;2.97;2.30;;;20.70;99.90;;;;;;5033986;28;20205;-76
2023/09/16 16:22:43;;;;;;;2.53;2.20;;;20.60;99.90;;;;;;5046910;28;20339;-75
2023/09/16 16:25:13;;;;;;;3.92;2.70;;;20.60;99.90;;;;;;5048011;28;20197;-76
2023/09/16 16:27:44;;;;;;;4.13;2.35;;;20.50;99.90;;;;;;5053713;28;20218;-75
2023/09/16 16:30:17;;;;;;;2.97;2.38;;;20.50;99.90;;;;;;5051101;28;20741;-75
2023/09/16 16:32:48;;;;;;;4.15;2.20;;;20.50;99.90;;;;;;5051960;28;20206;-76
2023/09/16 16:35:19;;;;;;;4.18;2.45;;;20.40;99.90;;;;;;5042418;28;20204;-76
2023/09/16 16:37:50;;;;;;;4.40;2.67;;;20.40;99.90;;;;;;5036820;28;20660;-76
2023/09/16 16:40:21;;;;;;;3.00;2.45;;;20.40;99.90;;;;;;5036806;28;20673;-76
2023/09/16 16:42:52;;;;;;;4.05;2.33;;;20.30;99.90;;;;;;5054751;28;20191;-76
2023/09/16 16:45:25;;;;;;;3.00;2.35;;;20.30;99.90;;;;;;5056717;28;20186;-75
2023/09/16 16:47:55;;;;;;;2.67;2.13;;;20.30;99.90;;;;;;5056575;28;20210;-76
2023/09/16 16:50:26;;;;;;;3.47;2.30;;;20.20;99.90;;;;;;5048391;28;20190;-76
2023/09/16 16:52:57;;;;;;;3.10;2.45;;;20.20;99.90;;;;;;5036526;28;20252;-75
2023/09/16 16:55:28;;;;;;;3.78;2.50;;;20.10;99.90;;;;;;5036651;28;20566;-76
2023/09/16 16:57:58;;;;;;;3.85;2.92;;;20.10;99.90;;;;;;5050799;28;20212;-76
2023/09/16 17:00:32;;;;;;;5.20;2.58;;;20.10;99.90;;;;;;5036001;28;20233;-76
2023/09/16 17:03:04;;;;;;;4.70;2.58;;;20.00;99.90;;;;;;5036318;28;20544;-76
2023/09/16 17:05:35;;;;;;;6.43;2.58;;;20.00;99.90;;;;;;5036125;28;20230;-76
2023/09/16 17:08:06;;;;;;;3.13;2.50;;;19.90;99.90;;;;;;5043674;28;20225;-76
2023/09/16 17:10:36;;;;;;;3.05;2.35;;;19.90;99.90;;;;;;5049225;28;20198;-76
2023/09/16 17:13:09;;;;;;;3.15;2.40;;;19.90;99.90;;;;;;5048604;28;20198;-76
2023/09/16 17:15:41;;;;;;;5.63;3.00;;;19.80;99.90;;;;;;5055265;28;20252;-76
2023/09/16 17:18:13;;;;;;;4.20;2.78;;;19.80;99.90;;;;;;5052563;28;20630;-76
2023/09/16 17:20:43;;;;;;;3.40;2.70;;;19.80;99.90;;;;;;5048275;28;20335;-76
2023/09/16 17:23:15;;;;;;;3.60;2.70;;;19.70;99.90;;;;;;5042400;28;20206;-76
2023/09/16 17:25:46;;;;;;;5.60;2.97;;;19.70;99.90;;;;;;5054037;28;20198;-76
2023/09/16 17:28:23;;;;;;;5.60;2.63;;;19.70;99.90;;;;;;5046866;28;20213;-76
2023/09/16 17:30:56;;;;;;;3.50;2.42;;;19.60;99.90;;;;;;5051212;28;20193;-76
2023/09/16 17:33:27;;;;;;;4.97;2.30;;;19.50;99.90;;;;;;5035503;28;20205;-76
2023/09/16 17:35:58;;;;;;;3.95;2.60;;;19.50;99.90;;;;;;5039179;28;20194;-76
2023/09/16 17:38:30;;;;;;;3.08;2.17;;;19.40;99.90;;;;;;5036212;28;20198;-76
2023/09/16 17:41:04;;;;;;;3.95;2.47;;;19.30;99.90;;;;;;5040057;28;20205;-76
2023/09/16 17:43:34;;;;;;;3.53;2.28;;;19.30;99.90;;;;;;5050995;28;20603;-76
2023/09/16 17:46:07;;;;;;;5.15;2.40;;;19.20;99.90;;;;;;5054951;28;20186;-76
2023/09/16 17:48:38;;;;;;;3.42;2.80;;;19.10;99.90;;;;;;5046888;28;20685;-76
2023/09/16 17:51:09;;;;;;;3.88;2.60;;;19.00;99.90;;;;;;5055514;28;20197;-76
2023/09/16 17:53:40;;;;;;;4.47;2.53;;;18.80;99.90;;;;;;5053633;28;20214;-76
2023/09/16 17:56:11;;;;;;;3.85;2.40;;;18.70;99.90;;;;;;5053787;28;20189;-76
2023/09/16 17:58:44;;;;;;;4.05;2.30;;;18.70;99.90;;;;;;5042896;28;20199;-76
2023/09/16 18:01:17;;;;;;;2.80;2.20;;;18.60;99.90;;;;;;5035431;28;20204;-76
2023/09/16 18:03:48;;;;;;;4.10;2.50;;;18.60;99.90;;;;;;5034999;28;20190;-76
2023/09/16 18:06:18;;;;;;;4.05;2.35;;;18.50;99.90;;;;;;5051936;28;20244;-76
2023/09/16 18:08:49;;;;;;;2.97;2.40;;;18.50;99.90;;;;;;5054842;28;20209;-76
2023/09/16 18:11:20;;;;;;;5.13;2.40;;;18.40;99.90;;;;;;5055158;28;20549;-76
2023/09/16 18:13:51;;;;;;;4.63;2.50;;;18.40;99.90;;;;;;5039729;28;20244;-76
2023/09/16 18:16:23;;;;;;;3.97;2.47;;;18.30;99.90;;;;;;5052414;28;20198;-76
2023/09/16 18:18:55;;;;;;;3.90;2.60;;;18.30;99.90;;;;;;5037032;28;20201;-76
2023/09/16 18:21:26;;;;;;;5.97;2.40;;;18.20;99.90;;;;;;5049398;28;20556;-77
2023/09/16 18:23:58;;;;;;;3.80;2.50;;;18.20;99.90;;;;;;5041176;28;20201;-76
2023/09/16 18:26:30;;;;;;;3.42;2.38;;;18.10;99.90;;;;;;5041340;28;20198;-76
2023/09/16 18:29:00;;;;;;;3.33;2.30;;;18.10;99.90;;;;;;5048394;28;20226;-76
2023/09/16 18:31:33;;;;;;;3.47;2.30;;;18.10;99.90;;;;;;5051712;28;20204;-76
2023/09/16 18:34:04;;;;;;;2.70;2.22;;;18.00;99.90;;;;;;5050942;28;20198;-76
2023/09/16 18:36:35;;;;;;;3.33;2.17;;;18.00;99.90;;;;;;5034051;28;20198;-76
2023/09/16 18:39:06;;;;;;;2.90;2.00;;;17.90;99.90;;;;;;5040274;28;20284;-76
2023/09/16 18:41:36;;;;;;;3.35;2.33;;;17.90;99.90;;;;;;5039135;28;20202;-76
2023/09/16 18:44:07;;;;;;;3.15;2.42;;;17.80;99.90;;;;;;5045397;28;20198;-76
2023/09/16 18:46:40;;;;;;;3.17;2.30;;;17.80;99.90;;;;;;5052496;28;20216;-76
2023/09/16 18:49:12;;;;;;;2.80;2.50;;;17.80;99.90;;;;;;5036044;28;20223;-76
2023/09/16 18:51:43;;;;;;;3.03;2.45;;;17.80;99.90;;;;;;5040627;28;20206;-76
2023/09/16 18:54:14;;;;;;;3.33;2.35;;;17.70;99.90;;;;;;5042013;28;20205;-76
2023/09/16 18:56:45;;;;;;;3.75;2.30;;;17.70;99.90;;;;;;5039632;28;20209;-76
2023/09/16 18:59:16;;;;;;;2.53;2.20;;;17.60;99.90;;;;;;5035496;28;20611;-76
2023/09/16 19:01:49;;;;;;;2.75;2.33;;;17.60;99.90;;;;;;5045750;28;20194;-76
2023/09/16 19:04:19;;;;;;;3.55;2.40;;;17.60;99.90;;;;;;5051446;28;20567;-76
2023/09/16 19:06:50;;;;;;;4.65;2.30;;;17.50;99.90;;;;;;5039570;28;20236;-76
2023/09/16 19:09:21;;;;;;;3.13;2.30;;;17.50;99.90;;;;;;5049865;28;20242;-76
2023/09/16 19:11:52;;;;;;;2.90;2.40;;;17.50;99.90;;;;;;5034123;28;20202;-76
2023/09/16 19:14:23;;;;;;;2.17;1.98;;;17.50;99.90;;;;;;5038006;28;20213;-76
2023/09/16 19:16:56;;;;;;;2.85;2.20;;;17.50;99.90;;;;;;5053723;28;20200;-76
2023/09/16 19:19:27;;;;;;;3.38;2.08;;;17.50;99.90;;;;;;5051986;28;20205;-76
2023/09/16 19:21:58;;;;;;;3.85;2.13;;;17.50;99.90;;;;;;5036256;28;20286;-76
2023/09/16 19:24:29;;;;;;;4.00;2.03;;;17.40;99.90;;;;;;5038251;28;20327;-77
2023/09/16 19:27:00;;;;;;;2.78;2.17;;;17.40;99.90;;;;;;5048390;28;20193;-76
2023/09/16 19:29:32;;;;;;;3.88;2.20;;;17.40;99.90;;;;;;5043195;28;20218;-76
2023/09/16 19:32:05;;;;;;;2.58;2.13;;;17.40;99.90;;;;;;5042721;28;20197;-76